sensor_id;sensor_type;location;lat;lon;timestamp;pressure;altitude;pressure_sealevel;temperature;humidity
69855;BME280;57146;48.140;16.304;2023-03-04T00:00:58;99668.69;;;1.46;73.13
69855;BME280;57146;48.140;16.304;2023-03-04T00:03:26;99663.81;;;1.38;74.17
69855;BME280;57146;48.140;16.304;2023-03-04T00:05:53;99675.47;;;1.35;74.17
69855;BME280;57146;48.140;16.304;2023-03-04T00:08:20;99668.25;;;1.26;74.15
69855;BME280;57146;48.140;16.304;2023-03-04T00:10:46;99667.22;;;1.27;74.37
69855;BME280;57146;48.140;16.304;2023-03-04T00:13:13;99670.97;;;1.19;74.09
69855;BME280;57146;48.140;16.304;2023-03-04T00:15:41;99659.59;;;1.08;74.66
69855;BME280;57146;48.140;16.304;2023-03-04T00:18:08;99668.63;;;1.06;74.92
69855;BME280;57146;48.140;16.304;2023-03-04T00:20:35;99663.22;;;0.95;75.20
69855;BME280;57146;48.140;16.304;2023-03-04T00:23:03;99659.81;;;0.95;74.88
69855;BME280;57146;48.140;16.304;2023-03-04T00:25:30;99661.53;;;0.89;75.79
69855;BME280;57146;48.140;16.304;2023-03-04T00:27:57;99657.25;;;0.95;74.54
69855;BME280;57146;48.140;16.304;2023-03-04T00:30:24;99653.06;;;0.94;74.98
69855;BME280;57146;48.140;16.304;2023-03-04T00:32:51;99651.28;;;0.94;74.99
69855;BME280;57146;48.140;16.304;2023-03-04T00:35:18;99660.53;;;0.79;76.47
69855;BME280;57146;48.140;16.304;2023-03-04T00:37:45;99654.78;;;0.77;75.77
69855;BME280;57146;48.140;16.304;2023-03-04T00:40:15;99655.13;;;0.68;76.19
69855;BME280;57146;48.140;16.304;2023-03-04T00:42:43;99653.06;;;0.70;75.76
69855;BME280;57146;48.140;16.304;2023-03-04T00:45:14;99645.41;;;0.64;75.61
69855;BME280;57146;48.140;16.304;2023-03-04T00:47:41;99649.94;;;0.68;76.20
69855;BME280;57146;48.140;16.304;2023-03-04T00:50:09;99644.19;;;0.55;77.26
69855;BME280;57146;48.140;16.304;2023-03-04T00:52:36;99647.31;;;0.57;76.10
69855;BME280;57146;48.140;16.304;2023-03-04T00:55:04;99639.78;;;0.43;76.83
69855;BME280;57146;48.140;16.304;2023-03-04T00:57:32;99634.13;;;0.35;77.92
69855;BME280;57146;48.140;16.304;2023-03-04T01:00:00;99630.41;;;0.31;77.72
69855;BME280;57146;48.140;16.304;2023-03-04T01:02:26;99633.66;;;0.26;78.09
69855;BME280;57146;48.140;16.304;2023-03-04T01:05:42;99629.72;;;0.23;78.07
69855;BME280;57146;48.140;16.304;2023-03-04T01:08:09;99618.34;;;0.24;78.23
69855;BME280;57146;48.140;16.304;2023-03-04T01:10:36;99622.28;;;0.27;77.09
69855;BME280;57146;48.140;16.304;2023-03-04T01:13:03;99619.84;;;0.32;76.92
69855;BME280;57146;48.140;16.304;2023-03-04T01:15:30;99618.59;;;0.35;76.65
69855;BME280;57146;48.140;16.304;2023-03-04T01:17:57;99618.69;;;0.28;76.68
69855;BME280;57146;48.140;16.304;2023-03-04T01:20:24;99612.38;;;0.24;77.11
69855;BME280;57146;48.140;16.304;2023-03-04T01:22:50;99609.09;;;0.17;77.40
69855;BME280;57146;48.140;16.304;2023-03-04T01:25:17;99608.06;;;0.06;78.03
69855;BME280;57146;48.140;16.304;2023-03-04T01:27:45;99608.41;;;-0.02;78.07
69855;BME280;57146;48.140;16.304;2023-03-04T01:30:12;99599.50;;;-0.06;78.60
69855;BME280;57146;48.140;16.304;2023-03-04T01:32:39;99597.44;;;-0.16;78.47
69855;BME280;57146;48.140;16.304;2023-03-04T01:35:08;99594.44;;;-0.01;78.60
69855;BME280;57146;48.140;16.304;2023-03-04T01:37:35;99594.44;;;-0.01;78.32
69855;BME280;57146;48.140;16.304;2023-03-04T01:40:03;99595.66;;;-0.04;78.30
69855;BME280;57146;48.140;16.304;2023-03-04T01:42:56;99586.31;;;-0.05;77.93
69855;BME280;57146;48.140;16.304;2023-03-04T01:45:23;99587.25;;;0.01;78.25
69855;BME280;57146;48.140;16.304;2023-03-04T01:47:51;99579.91;;;-0.14;78.95
69855;BME280;57146;48.140;16.304;2023-03-04T01:50:42;99583.63;;;-0.10;78.56
69855;BME280;57146;48.140;16.304;2023-03-04T01:53:23;99577.78;;;-0.05;78.32
69855;BME280;57146;48.140;16.304;2023-03-04T01:55:53;99578.91;;;-0.13;79.05
69855;BME280;57146;48.140;16.304;2023-03-04T01:58:28;99572.34;;;-0.15;78.53
69855;BME280;57146;48.140;16.304;2023-03-04T02:00:57;99569.56;;;-0.14;79.08
69855;BME280;57146;48.140;16.304;2023-03-04T02:03:24;99564.03;;;-0.17;79.23
69855;BME280;57146;48.140;16.304;2023-03-04T02:05:52;99556.38;;;-0.24;79.15
69855;BME280;57146;48.140;16.304;2023-03-04T02:08:22;99556.47;;;-0.19;78.87
69855;BME280;57146;48.140;16.304;2023-03-04T02:10:51;99549.88;;;-0.03;78.80
69855;BME280;57146;48.140;16.304;2023-03-04T02:13:21;99556.63;;;-0.02;78.59
69855;BME280;57146;48.140;16.304;2023-03-04T02:15:47;99547.84;;;-0.01;79.00
69855;BME280;57146;48.140;16.304;2023-03-04T02:18:20;99545.84;;;0.24;78.28
69855;BME280;57146;48.140;16.304;2023-03-04T02:21:14;99536.50;;;0.35;77.93
69855;BME280;57146;48.140;16.304;2023-03-04T02:26:39;99532.56;;;0.68;76.36
69855;BME280;57146;48.140;16.304;2023-03-04T02:29:12;99530.34;;;0.88;76.12
69855;BME280;57146;48.140;16.304;2023-03-04T02:31:46;99530.00;;;0.85;75.51
69855;BME280;57146;48.140;16.304;2023-03-04T02:34:20;99521.53;;;1.01;75.04
69855;BME280;57146;48.140;16.304;2023-03-04T02:36:51;99513.94;;;1.11;75.46
69855;BME280;57146;48.140;16.304;2023-03-04T02:41:49;99512.84;;;1.53;73.21
69855;BME280;57146;48.140;16.304;2023-03-04T02:44:22;99507.75;;;1.58;73.21
69855;BME280;57146;48.140;16.304;2023-03-04T02:46:51;99500.50;;;1.60;73.33
69855;BME280;57146;48.140;16.304;2023-03-04T02:49:19;99495.81;;;1.57;73.66
69855;BME280;57146;48.140;16.304;2023-03-04T02:51:52;99501.69;;;1.52;73.16
69855;BME280;57146;48.140;16.304;2023-03-04T02:54:21;99487.94;;;1.52;73.74
69855;BME280;57146;48.140;16.304;2023-03-04T02:56:51;99485.44;;;1.57;73.46
69855;BME280;57146;48.140;16.304;2023-03-04T02:59:22;99484.56;;;1.51;73.38
69855;BME280;57146;48.140;16.304;2023-03-04T03:01:51;99481.00;;;1.40;74.12
69855;BME280;57146;48.140;16.304;2023-03-04T03:04:19;99487.03;;;1.29;74.65
69855;BME280;57146;48.140;16.304;2023-03-04T03:06:50;99484.72;;;1.16;75.65
69855;BME280;57146;48.140;16.304;2023-03-04T03:09:19;99477.50;;;1.18;75.49
69855;BME280;57146;48.140;16.304;2023-03-04T03:11:46;99479.78;;;1.14;76.22
69855;BME280;57146;48.140;16.304;2023-03-04T03:14:14;99482.19;;;1.04;75.92
69855;BME280;57146;48.140;16.304;2023-03-04T03:16:41;99471.84;;;0.92;76.42
69855;BME280;57146;48.140;16.304;2023-03-04T03:19:09;99463.28;;;0.92;76.50
69855;BME280;57146;48.140;16.304;2023-03-04T03:21:38;99469.31;;;0.81;77.10
69855;BME280;57146;48.140;16.304;2023-03-04T03:24:05;99468.66;;;0.74;77.93
69855;BME280;57146;48.140;16.304;2023-03-04T03:26:32;99465.41;;;0.66;78.41
69855;BME280;57146;48.140;16.304;2023-03-04T03:28:59;99459.09;;;0.62;78.19
69855;BME280;57146;48.140;16.304;2023-03-04T03:31:29;99460.78;;;0.57;79.05
69855;BME280;57146;48.140;16.304;2023-03-04T03:33:56;99450.91;;;0.54;78.78
69855;BME280;57146;48.140;16.304;2023-03-04T03:36:23;99445.41;;;0.50;79.14
69855;BME280;57146;48.140;16.304;2023-03-04T03:38:50;99452.28;;;0.44;79.98
69855;BME280;57146;48.140;16.304;2023-03-04T03:41:17;99441.47;;;0.47;79.46
69855;BME280;57146;48.140;16.304;2023-03-04T03:43:43;99441.91;;;0.44;79.78
69855;BME280;57146;48.140;16.304;2023-03-04T03:46:11;99438.63;;;0.49;80.81
69855;BME280;57146;48.140;16.304;2023-03-04T03:48:38;99427.63;;;0.42;80.54
69855;BME280;57146;48.140;16.304;2023-03-04T03:51:06;99429.28;;;0.48;81.07
69855;BME280;57146;48.140;16.304;2023-03-04T03:53:35;99423.47;;;0.41;80.77
69855;BME280;57146;48.140;16.304;2023-03-04T03:56:02;99423.03;;;0.32;81.04
69855;BME280;57146;48.140;16.304;2023-03-04T03:58:29;99419.06;;;0.41;81.66
69855;BME280;57146;48.140;16.304;2023-03-04T04:00:56;99417.25;;;0.42;82.24
69855;BME280;57146;48.140;16.304;2023-03-04T04:03:50;99404.53;;;0.40;82.46
69855;BME280;57146;48.140;16.304;2023-03-04T04:06:18;99409.56;;;0.59;83.37
69855;BME280;57146;48.140;16.304;2023-03-04T04:08:45;99409.75;;;0.69;83.96
69855;BME280;57146;48.140;16.304;2023-03-04T04:11:15;99410.63;;;0.75;84.23
69855;BME280;57146;48.140;16.304;2023-03-04T04:14:10;99402.03;;;0.57;84.20
69855;BME280;57146;48.140;16.304;2023-03-04T04:16:37;99409.31;;;0.60;84.63
69855;BME280;57146;48.140;16.304;2023-03-04T04:19:05;99395.44;;;0.66;84.61
69855;BME280;57146;48.140;16.304;2023-03-04T04:21:32;99397.56;;;0.69;85.04
69855;BME280;57146;48.140;16.304;2023-03-04T04:24:02;99404.44;;;0.76;85.34
69855;BME280;57146;48.140;16.304;2023-03-04T04:26:29;99400.56;;;1.07;87.15
69855;BME280;57146;48.140;16.304;2023-03-04T04:29:20;99402.81;;;1.32;88.26
69855;BME280;57146;48.140;16.304;2023-03-04T04:31:47;99396.13;;;1.36;87.67
69855;BME280;57146;48.140;16.304;2023-03-04T04:34:16;99387.53;;;1.52;87.95
69855;BME280;57146;48.140;16.304;2023-03-04T04:36:43;99388.78;;;1.66;88.32
69855;BME280;57146;48.140;16.304;2023-03-04T04:39:12;99392.84;;;1.79;88.08
69855;BME280;57146;48.140;16.304;2023-03-04T04:41:41;99386.66;;;2.02;88.33
69855;BME280;57146;48.140;16.304;2023-03-04T04:44:09;99390.13;;;2.30;88.42
69855;BME280;57146;48.140;16.304;2023-03-04T04:46:37;99382.94;;;2.86;88.06
69855;BME280;57146;48.140;16.304;2023-03-04T04:49:06;99382.84;;;3.03;86.05
69855;BME280;57146;48.140;16.304;2023-03-04T04:51:34;99379.44;;;3.34;84.97
69855;BME280;57146;48.140;16.304;2023-03-04T04:54:02;99380.13;;;3.62;83.67
69855;BME280;57146;48.140;16.304;2023-03-04T04:56:31;99377.09;;;3.75;83.22
69855;BME280;57146;48.140;16.304;2023-03-04T04:59:00;99372.00;;;3.96;82.45
69855;BME280;57146;48.140;16.304;2023-03-04T05:01:30;99372.53;;;3.98;81.84
69855;BME280;57146;48.140;16.304;2023-03-04T05:03:57;99368.09;;;3.98;81.47
69855;BME280;57146;48.140;16.304;2023-03-04T05:06:25;99370.47;;;4.05;81.14
69855;BME280;57146;48.140;16.304;2023-03-04T05:08:52;99363.44;;;4.05;81.11
69855;BME280;57146;48.140;16.304;2023-03-04T05:11:20;99359.81;;;4.06;81.55
69855;BME280;57146;48.140;16.304;2023-03-04T05:13:48;99365.31;;;4.15;81.12
69855;BME280;57146;48.140;16.304;2023-03-04T05:16:15;99366.31;;;4.09;80.69
69855;BME280;57146;48.140;16.304;2023-03-04T05:19:08;99365.50;;;3.98;80.74
69855;BME280;57146;48.140;16.304;2023-03-04T05:21:35;99369.47;;;4.11;80.36
69855;BME280;57146;48.140;16.304;2023-03-04T05:24:02;99366.16;;;4.31;80.04
69855;BME280;57146;48.140;16.304;2023-03-04T05:26:29;99374.53;;;4.43;79.03
69855;BME280;57146;48.140;16.304;2023-03-04T05:28:56;99369.06;;;4.40;79.05
69855;BME280;57146;48.140;16.304;2023-03-04T05:31:23;99364.13;;;4.43;78.70
69855;BME280;57146;48.140;16.304;2023-03-04T05:33:54;99372.41;;;4.25;78.99
69855;BME280;57146;48.140;16.304;2023-03-04T05:36:21;99368.28;;;4.44;78.54
69855;BME280;57146;48.140;16.304;2023-03-04T05:38:48;99371.69;;;4.45;78.00
69855;BME280;57146;48.140;16.304;2023-03-04T05:41:16;99367.72;;;4.32;78.90
69855;BME280;57146;48.140;16.304;2023-03-04T05:43:43;99367.22;;;4.40;78.34
69855;BME280;57146;48.140;16.304;2023-03-04T05:46:14;99365.94;;;4.43;78.64
69855;BME280;57146;48.140;16.304;2023-03-04T05:48:42;99366.44;;;4.35;78.89
69855;BME280;57146;48.140;16.304;2023-03-04T05:51:09;99377.34;;;4.26;78.73
69855;BME280;57146;48.140;16.304;2023-03-04T05:53:40;99368.16;;;4.08;79.27
69855;BME280;57146;48.140;16.304;2023-03-04T05:56:13;99372.28;;;3.99;79.97
69855;BME280;57146;48.140;16.304;2023-03-04T05:58:43;99382.94;;;3.98;79.70
69855;BME280;57146;48.140;16.304;2023-03-04T06:01:10;99375.41;;;3.96;80.33
69855;BME280;57146;48.140;16.304;2023-03-04T06:03:37;99376.97;;;3.97;79.89
69855;BME280;57146;48.140;16.304;2023-03-04T06:06:04;99381.06;;;3.83;80.45
69855;BME280;57146;48.140;16.304;2023-03-04T06:08:33;99388.38;;;3.91;80.17
69855;BME280;57146;48.140;16.304;2023-03-04T06:11:49;99385.06;;;4.01;80.14
69855;BME280;57146;48.140;16.304;2023-03-04T06:14:19;99382.72;;;3.99;80.14
69855;BME280;57146;48.140;16.304;2023-03-04T06:16:46;99384.28;;;4.05;80.16
69855;BME280;57146;48.140;16.304;2023-03-04T06:19:18;99384.03;;;4.07;79.74
69855;BME280;57146;48.140;16.304;2023-03-04T06:21:45;99388.72;;;4.05;78.85
69855;BME280;57146;48.140;16.304;2023-03-04T06:24:12;99399.44;;;4.14;78.79
69855;BME280;57146;48.140;16.304;2023-03-04T06:26:39;99393.69;;;4.12;79.30
69855;BME280;57146;48.140;16.304;2023-03-04T06:29:06;99390.09;;;4.18;78.80
69855;BME280;57146;48.140;16.304;2023-03-04T06:31:39;99398.44;;;4.25;78.90
69855;BME280;57146;48.140;16.304;2023-03-04T06:34:09;99407.38;;;4.44;78.02
69855;BME280;57146;48.140;16.304;2023-03-04T06:36:59;99396.47;;;4.52;77.71
69855;BME280;57146;48.140;16.304;2023-03-04T06:39:26;99399.13;;;4.73;76.77
69855;BME280;57146;48.140;16.304;2023-03-04T06:41:53;99390.50;;;4.67;77.87
69855;BME280;57146;48.140;16.304;2023-03-04T06:44:21;99391.34;;;4.93;75.79
69855;BME280;57146;48.140;16.304;2023-03-04T06:46:48;99401.53;;;5.10;75.17
69855;BME280;57146;48.140;16.304;2023-03-04T06:49:15;99393.97;;;5.24;74.84
69855;BME280;57146;48.140;16.304;2023-03-04T06:51:46;99389.28;;;5.36;73.70
69855;BME280;57146;48.140;16.304;2023-03-04T06:54:14;99389.03;;;5.48;73.35
69855;BME280;57146;48.140;16.304;2023-03-04T06:56:41;99385.09;;;5.56;72.74
69855;BME280;57146;48.140;16.304;2023-03-04T06:59:09;99392.66;;;5.57;72.68
69855;BME280;57146;48.140;16.304;2023-03-04T07:01:36;99382.72;;;5.64;73.10
69855;BME280;57146;48.140;16.304;2023-03-04T07:04:04;99381.94;;;5.74;71.88
69855;BME280;57146;48.140;16.304;2023-03-04T07:06:31;99389.50;;;5.81;71.66
69855;BME280;57146;48.140;16.304;2023-03-04T07:08:58;99386.06;;;5.85;71.28
69855;BME280;57146;48.140;16.304;2023-03-04T07:11:50;99376.41;;;5.96;70.65
69855;BME280;57146;48.140;16.304;2023-03-04T07:14:17;99384.75;;;6.03;70.87
69855;BME280;57146;48.140;16.304;2023-03-04T07:17:10;99384.19;;;6.11;70.20
69855;BME280;57146;48.140;16.304;2023-03-04T07:19:37;99377.38;;;6.15;69.63
69855;BME280;57146;48.140;16.304;2023-03-04T07:22:32;99374.47;;;6.22;69.38
69855;BME280;57146;48.140;16.304;2023-03-04T07:24:59;99372.09;;;6.26;69.04
69855;BME280;57146;48.140;16.304;2023-03-04T07:27:26;99372.63;;;6.28;68.68
69855;BME280;57146;48.140;16.304;2023-03-04T07:29:53;99367.94;;;6.30;68.37
69855;BME280;57146;48.140;16.304;2023-03-04T07:32:20;99359.53;;;6.38;68.26
69855;BME280;57146;48.140;16.304;2023-03-04T07:34:48;99362.88;;;6.48;68.02
69855;BME280;57146;48.140;16.304;2023-03-04T07:37:15;99368.06;;;6.54;67.87
69855;BME280;57146;48.140;16.304;2023-03-04T07:39:42;99369.59;;;6.60;67.59
69855;BME280;57146;48.140;16.304;2023-03-04T07:42:11;99365.66;;;6.62;67.70
69855;BME280;57146;48.140;16.304;2023-03-04T07:44:40;99357.78;;;6.67;67.84
69855;BME280;57146;48.140;16.304;2023-03-04T07:47:07;99371.63;;;6.73;67.54
69855;BME280;57146;48.140;16.304;2023-03-04T07:49:34;99362.19;;;6.77;67.47
69855;BME280;57146;48.140;16.304;2023-03-04T07:52:04;99368.94;;;6.83;67.14
69855;BME280;57146;48.140;16.304;2023-03-04T07:54:31;99370.44;;;6.94;67.10
69855;BME280;57146;48.140;16.304;2023-03-04T07:56:59;99363.59;;;6.99;66.82
69855;BME280;57146;48.140;16.304;2023-03-04T07:59:26;99368.53;;;7.00;66.86
69855;BME280;57146;48.140;16.304;2023-03-04T08:01:53;99379.53;;;7.02;66.20
69855;BME280;57146;48.140;16.304;2023-03-04T08:04:19;99374.78;;;7.09;66.48
69855;BME280;57146;48.140;16.304;2023-03-04T08:06:47;99381.31;;;7.07;65.96
69855;BME280;57146;48.140;16.304;2023-03-04T08:09:13;99387.09;;;7.04;65.94
69855;BME280;57146;48.140;16.304;2023-03-04T08:12:05;99385.72;;;7.11;66.11
69855;BME280;57146;48.140;16.304;2023-03-04T08:14:32;99383.69;;;7.08;65.73
69855;BME280;57146;48.140;16.304;2023-03-04T08:16:59;99379.47;;;7.12;65.20
69855;BME280;57146;48.140;16.304;2023-03-04T08:19:27;99380.66;;;7.25;65.70
69855;BME280;57146;48.140;16.304;2023-03-04T08:21:55;99377.69;;;7.37;65.36
69855;BME280;57146;48.140;16.304;2023-03-04T08:24:22;99383.97;;;7.36;64.96
69855;BME280;57146;48.140;16.304;2023-03-04T08:26:51;99382.88;;;7.42;64.79
69855;BME280;57146;48.140;16.304;2023-03-04T08:29:23;99381.59;;;7.39;63.81
69855;BME280;57146;48.140;16.304;2023-03-04T08:31:51;99384.19;;;7.39;65.00
69855;BME280;57146;48.140;16.304;2023-03-04T08:34:25;99383.63;;;7.48;63.55
69855;BME280;57146;48.140;16.304;2023-03-04T08:36:52;99390.09;;;7.55;63.53
69855;BME280;57146;48.140;16.304;2023-03-04T08:39:21;99380.84;;;7.63;63.13
69855;BME280;57146;48.140;16.304;2023-03-04T08:41:48;99392.72;;;7.55;62.43
69855;BME280;57146;48.140;16.304;2023-03-04T08:44:16;99389.59;;;7.53;63.07
69855;BME280;57146;48.140;16.304;2023-03-04T08:46:44;99389.59;;;7.53;62.13
69855;BME280;57146;48.140;16.304;2023-03-04T08:49:12;99397.66;;;7.57;62.13
69855;BME280;57146;48.140;16.304;2023-03-04T08:51:39;99392.31;;;7.72;63.51
69855;BME280;57146;48.140;16.304;2023-03-04T08:54:06;99395.03;;;7.86;61.18
69855;BME280;57146;48.140;16.304;2023-03-04T08:56:33;99394.44;;;7.94;60.29
69855;BME280;57146;48.140;16.304;2023-03-04T08:59:00;99381.34;;;7.94;60.25
69855;BME280;57146;48.140;16.304;2023-03-04T09:01:52;99395.00;;;7.91;59.96
69855;BME280;57146;48.140;16.304;2023-03-04T09:04:19;99395.00;;;7.91;60.21
69855;BME280;57146;48.140;16.304;2023-03-04T09:06:47;99383.94;;;7.94;59.10
69855;BME280;57146;48.140;16.304;2023-03-04T09:09:15;99385.28;;;7.91;58.23
69855;BME280;57146;48.140;16.304;2023-03-04T09:11:42;99382.66;;;7.91;58.63
69855;BME280;57146;48.140;16.304;2023-03-04T09:14:09;99390.38;;;7.83;58.84
69855;BME280;57146;48.140;16.304;2023-03-04T09:16:35;99385.56;;;7.61;59.16
69855;BME280;57146;48.140;16.304;2023-03-04T09:19:04;99389.50;;;7.63;59.75
69855;BME280;57146;48.140;16.304;2023-03-04T09:21:31;99376.41;;;7.63;59.25
69855;BME280;57146;48.140;16.304;2023-03-04T09:24:22;99392.75;;;7.79;59.40
69855;BME280;57146;48.140;16.304;2023-03-04T09:26:50;99390.63;;;7.81;59.21
69855;BME280;57146;48.140;16.304;2023-03-04T09:29:16;99380.91;;;7.82;58.44
69855;BME280;57146;48.140;16.304;2023-03-04T09:31:43;99397.88;;;7.89;59.06
69855;BME280;57146;48.140;16.304;2023-03-04T09:34:10;99393.38;;;7.95;58.57
69855;BME280;57146;48.140;16.304;2023-03-04T09:36:38;99389.91;;;7.76;59.50
69855;BME280;57146;48.140;16.304;2023-03-04T09:39:06;99390.94;;;7.75;59.54
69855;BME280;57146;48.140;16.304;2023-03-04T09:41:59;99387.53;;;7.79;58.91
69855;BME280;57146;48.140;16.304;2023-03-04T09:44:56;99369.72;;;7.76;59.34
69855;BME280;57146;48.140;16.304;2023-03-04T09:47:24;99381.44;;;7.84;59.05
69855;BME280;57146;48.140;16.304;2023-03-04T09:50:17;99374.78;;;7.91;58.64
69855;BME280;57146;48.140;16.304;2023-03-04T09:55:41;99381.78;;;8.01;57.41
69855;BME280;57146;48.140;16.304;2023-03-04T10:01:20;99377.34;;;7.97;56.93
69855;BME280;57146;48.140;16.304;2023-03-04T10:04:17;99364.19;;;8.02;57.01
69855;BME280;57146;48.140;16.304;2023-03-04T10:06:43;99362.50;;;8.11;56.39
69855;BME280;57146;48.140;16.304;2023-03-04T10:09:14;99369.78;;;8.19;56.56
69855;BME280;57146;48.140;16.304;2023-03-04T10:12:11;99351.56;;;8.28;55.79
69855;BME280;57146;48.140;16.304;2023-03-04T10:20:08;99346.94;;;8.62;53.83
69855;BME280;57146;48.140;16.304;2023-03-04T10:22:45;99347.75;;;8.39;54.92
69855;BME280;57146;48.140;16.304;2023-03-04T10:28:11;99331.47;;;8.42;54.04
69855;BME280;57146;48.140;16.304;2023-03-04T10:31:20;99327.06;;;8.37;54.00
69855;BME280;57146;48.140;16.304;2023-03-04T10:33:53;99318.78;;;8.49;53.71
69855;BME280;57146;48.140;16.304;2023-03-04T10:38:59;99312.09;;;8.57;53.47
69855;BME280;57146;48.140;16.304;2023-03-04T10:41:30;99303.53;;;8.51;53.95
69855;BME280;57146;48.140;16.304;2023-03-04T10:46:24;99310.06;;;8.54;53.30
69855;BME280;57146;48.140;16.304;2023-03-04T10:48:57;99302.13;;;8.59;51.82
69855;BME280;57146;48.140;16.304;2023-03-04T10:51:27;99309.28;;;8.72;52.72
69855;BME280;57146;48.140;16.304;2023-03-04T10:54:08;99305.16;;;8.66;52.42
69855;BME280;57146;48.140;16.304;2023-03-04T10:56:39;99306.22;;;8.65;52.50
69855;BME280;57146;48.140;16.304;2023-03-04T10:59:47;99314.81;;;8.52;52.49
69855;BME280;57146;48.140;16.304;2023-03-04T11:04:53;99294.81;;;8.56;52.67
69855;BME280;57146;48.140;16.304;2023-03-04T11:07:22;99304.44;;;8.79;52.53
69855;BME280;57146;48.140;16.304;2023-03-04T11:09:49;99305.13;;;8.85;51.27
69855;BME280;57146;48.140;16.304;2023-03-04T11:12:20;99293.78;;;8.90;50.88
69855;BME280;57146;48.140;16.304;2023-03-04T11:14:50;99296.22;;;9.00;50.05
69855;BME280;57146;48.140;16.304;2023-03-04T11:17:27;99302.69;;;9.07;48.92
69855;BME280;57146;48.140;16.304;2023-03-04T11:20:22;99286.34;;;9.24;48.87
69855;BME280;57146;48.140;16.304;2023-03-04T11:22:53;99275.81;;;9.10;48.35
69855;BME280;57146;48.140;16.304;2023-03-04T11:25:26;99275.44;;;9.17;48.32
69855;BME280;57146;48.140;16.304;2023-03-04T11:28:00;99265.34;;;9.24;47.30
69855;BME280;57146;48.140;16.304;2023-03-04T11:38:58;99265.25;;;9.29;47.61
69855;BME280;57146;48.140;16.304;2023-03-04T11:41:31;99257.09;;;9.45;46.65
69855;BME280;57146;48.140;16.304;2023-03-04T11:43:59;99265.84;;;9.40;45.96
69855;BME280;57146;48.140;16.304;2023-03-04T11:49:44;99279.94;;;9.30;46.10
69855;BME280;57146;48.140;16.304;2023-03-04T11:55:26;99270.69;;;9.19;47.36
69855;BME280;57146;48.140;16.304;2023-03-04T12:01:42;99258.53;;;9.23;45.56
69855;BME280;57146;48.140;16.304;2023-03-04T12:09:53;99236.38;;;9.43;45.69
69855;BME280;57146;48.140;16.304;2023-03-04T12:17:55;99243.06;;;9.35;46.88
69855;BME280;57146;48.140;16.304;2023-03-04T12:20:34;99239.47;;;9.45;47.12
69855;BME280;57146;48.140;16.304;2023-03-04T12:54:44;99195.31;;;9.20;47.92
69855;BME280;57146;48.140;16.304;2023-03-04T12:57:21;99192.09;;;9.23;47.85
69855;BME280;57146;48.140;16.304;2023-03-04T13:05:42;99188.50;;;9.32;46.94
69855;BME280;57146;48.140;16.304;2023-03-04T13:14:04;99181.75;;;9.54;46.45
69855;BME280;57146;48.140;16.304;2023-03-04T13:22:31;99179.41;;;9.66;46.54
69855;BME280;57146;48.140;16.304;2023-03-04T13:43:54;99154.97;;;9.66;45.41
69855;BME280;57146;48.140;16.304;2023-03-04T13:51:30;99145.53;;;9.65;45.06
69855;BME280;57146;48.140;16.304;2023-03-04T13:56:43;99138.78;;;9.72;45.55
69855;BME280;57146;48.140;16.304;2023-03-04T13:59:20;99129.94;;;9.68;44.93
69855;BME280;57146;48.140;16.304;2023-03-04T14:01:51;99128.75;;;9.74;45.59
69855;BME280;57146;48.140;16.304;2023-03-04T14:04:26;99133.63;;;9.67;44.84
69855;BME280;57146;48.140;16.304;2023-03-04T14:06:55;99131.63;;;9.64;45.69
69855;BME280;57146;48.140;16.304;2023-03-04T14:12:45;99138.53;;;9.60;45.98
69855;BME280;57146;48.140;16.304;2023-03-04T14:15:21;99123.06;;;9.58;45.95
69855;BME280;57146;48.140;16.304;2023-03-04T14:18:12;99121.31;;;9.54;45.75
69855;BME280;57146;48.140;16.304;2023-03-04T14:20:48;99122.38;;;9.53;46.06
69855;BME280;57146;48.140;16.304;2023-03-04T14:23:29;99123.38;;;9.57;45.95
69855;BME280;57146;48.140;16.304;2023-03-04T14:26:12;99120.25;;;9.55;46.41
69855;BME280;57146;48.140;16.304;2023-03-04T14:28:46;99110.88;;;9.63;46.66
69855;BME280;57146;48.140;16.304;2023-03-04T14:31:20;99113.81;;;9.61;46.11
69855;BME280;57146;48.140;16.304;2023-03-04T14:33:51;99117.69;;;9.64;46.72
69855;BME280;57146;48.140;16.304;2023-03-04T14:36:23;99114.47;;;9.67;47.12
69855;BME280;57146;48.140;16.304;2023-03-04T14:38:55;99119.16;;;9.56;47.02
69855;BME280;57146;48.140;16.304;2023-03-04T14:41:34;99114.22;;;9.54;46.90
69855;BME280;57146;48.140;16.304;2023-03-04T14:46:45;99113.44;;;9.54;47.20
69855;BME280;57146;48.140;16.304;2023-03-04T14:49:34;99115.56;;;9.52;47.18
69855;BME280;57146;48.140;16.304;2023-03-04T14:52:03;99109.84;;;9.50;47.27
69855;BME280;57146;48.140;16.304;2023-03-04T14:54:39;99113.53;;;9.49;47.55
69855;BME280;57146;48.140;16.304;2023-03-04T14:57:31;99115.56;;;9.52;47.33
69855;BME280;57146;48.140;16.304;2023-03-04T15:03:54;99107.50;;;9.48;47.18
69855;BME280;57146;48.140;16.304;2023-03-04T16:41:00;99225.53;;;6.85;50.78
69855;BME280;57146;48.140;16.304;2023-03-04T16:43:27;99230.81;;;6.80;50.41
69855;BME280;57146;48.140;16.304;2023-03-04T16:46:21;99229.34;;;6.69;50.57
69855;BME280;57146;48.140;16.304;2023-03-04T16:48:50;99237.53;;;6.57;50.92
69855;BME280;57146;48.140;16.304;2023-03-04T16:51:21;99249.09;;;6.51;50.98
69855;BME280;57146;48.140;16.304;2023-03-04T16:53:53;99253.63;;;6.40;51.46
69855;BME280;57146;48.140;16.304;2023-03-04T16:56:23;99252.09;;;6.34;51.93
69855;BME280;57146;48.140;16.304;2023-03-04T16:58:51;99256.56;;;6.29;51.86
69855;BME280;57146;48.140;16.304;2023-03-04T17:01:27;99261.00;;;6.28;51.66
69855;BME280;57146;48.140;16.304;2023-03-04T17:03:55;99268.31;;;6.26;51.54
69855;BME280;57146;48.140;16.304;2023-03-04T17:06:22;99267.59;;;6.20;51.81
69855;BME280;57146;48.140;16.304;2023-03-04T17:08:50;99268.13;;;6.17;51.95
69855;BME280;57146;48.140;16.304;2023-03-04T17:11:21;99272.59;;;6.12;52.33
69855;BME280;57146;48.140;16.304;2023-03-04T17:13:49;99276.53;;;6.09;52.46
69855;BME280;57146;48.140;16.304;2023-03-04T17:16:19;99274.72;;;6.05;52.51
69855;BME280;57146;48.140;16.304;2023-03-04T17:18:49;99281.00;;;6.04;52.42